sensor_id;sensor_type;location;lat;lon;timestamp;temperature;humidity
7077;DHT22;3579;48.956;9.154;2024-02-23T00:00:03;19.80;61.20
7077;DHT22;3579;48.956;9.154;2024-02-23T00:02:31;19.80;61.30
7077;DHT22;3579;48.956;9.154;2024-02-23T00:04:57;19.80;61.10
7077;DHT22;3579;48.956;9.154;2024-02-23T00:07:23;19.80;61.20
7077;DHT22;3579;48.956;9.154;2024-02-23T00:09:50;19.80;61.30
7077;DHT22;3579;48.956;9.154;2024-02-23T00:12:16;19.80;61.30
7077;DHT22;3579;48.956;9.154;2024-02-23T00:14:41;19.80;61.30
7077;DHT22;3579;48.956;9.154;2024-02-23T00:17:08;19.80;61.30
7077;DHT22;3579;48.956;9.154;2024-02-23T00:19:34;19.80;61.30
7077;DHT22;3579;48.956;9.154;2024-02-23T00:22:00;19.70;61.20
7077;DHT22;3579;48.956;9.154;2024-02-23T00:24:27;19.80;61.40
7077;DHT22;3579;48.956;9.154;2024-02-23T00:26:53;19.70;61.20
7077;DHT22;3579;48.956;9.154;2024-02-23T00:29:19;19.70;61.20
7077;DHT22;3579;48.956;9.154;2024-02-23T00:31:45;19.70;61.20
7077;DHT22;3579;48.956;9.154;2024-02-23T00:34:11;19.70;61.20
7077;DHT22;3579;48.956;9.154;2024-02-23T00:36:39;19.80;61.30
7077;DHT22;3579;48.956;9.154;2024-02-23T00:39:07;19.70;61.30
7077;DHT22;3579;48.956;9.154;2024-02-23T00:41:36;19.70;61.20
7077;DHT22;3579;48.956;9.154;2024-02-23T00:44:02;19.70;61.20
7077;DHT22;3579;48.956;9.154;2024-02-23T00:46:29;19.70;61.10
7077;DHT22;3579;48.956;9.154;2024-02-23T00:48:55;19.70;61.20
7077;DHT22;3579;48.956;9.154;2024-02-23T00:51:21;19.70;61.20
7077;DHT22;3579;48.956;9.154;2024-02-23T00:53:47;19.70;61.20
7077;DHT22;3579;48.956;9.154;2024-02-23T00:56:13;19.70;61.20
7077;DHT22;3579;48.956;9.154;2024-02-23T00:58:40;19.70;61.20
7077;DHT22;3579;48.956;9.154;2024-02-23T01:01:06;22.70;64.40
7077;DHT22;3579;48.956;9.154;2024-02-23T01:03:32;19.70;61.30
7077;DHT22;3579;48.956;9.154;2024-02-23T01:05:58;19.70;61.20
7077;DHT22;3579;48.956;9.154;2024-02-23T01:08:24;19.70;61.20
7077;DHT22;3579;48.956;9.154;2024-02-23T01:10:50;19.70;61.20
7077;DHT22;3579;48.956;9.154;2024-02-23T01:13:16;19.70;61.30
7077;DHT22;3579;48.956;9.154;2024-02-23T01:15:43;19.70;61.30
7077;DHT22;3579;48.956;9.154;2024-02-23T01:18:09;19.70;61.30
7077;DHT22;3579;48.956;9.154;2024-02-23T01:20:35;19.70;61.30
7077;DHT22;3579;48.956;9.154;2024-02-23T01:23:01;19.70;61.30
7077;DHT22;3579;48.956;9.154;2024-02-23T01:25:27;19.70;61.40
7077;DHT22;3579;48.956;9.154;2024-02-23T01:27:53;19.70;61.40
7077;DHT22;3579;48.956;9.154;2024-02-23T01:30:19;19.70;61.40
7077;DHT22;3579;48.956;9.154;2024-02-23T01:32:46;19.60;62.00
7077;DHT22;3579;48.956;9.154;2024-02-23T01:35:12;19.70;61.50
7077;DHT22;3579;48.956;9.154;2024-02-23T01:37:38;19.70;61.40
7077;DHT22;3579;48.956;9.154;2024-02-23T01:40:04;19.60;61.30
7077;DHT22;3579;48.956;9.154;2024-02-23T01:42:30;19.60;61.40
7077;DHT22;3579;48.956;9.154;2024-02-23T01:44:56;19.60;61.40
7077;DHT22;3579;48.956;9.154;2024-02-23T01:47:24;19.60;61.30
7077;DHT22;3579;48.956;9.154;2024-02-23T01:49:51;19.60;61.40
7077;DHT22;3579;48.956;9.154;2024-02-23T01:52:18;19.60;61.30
7077;DHT22;3579;48.956;9.154;2024-02-23T01:54:45;19.60;61.40
7077;DHT22;3579;48.956;9.154;2024-02-23T01:57:11;19.60;61.40
7077;DHT22;3579;48.956;9.154;2024-02-23T01:59:38;19.60;61.40
7077;DHT22;3579;48.956;9.154;2024-02-23T02:02:05;19.60;61.40
7077;DHT22;3579;48.956;9.154;2024-02-23T02:04:31;19.60;61.40
7077;DHT22;3579;48.956;9.154;2024-02-23T02:06:59;19.60;61.50
7077;DHT22;3579;48.956;9.154;2024-02-23T02:09:25;19.60;61.40
7077;DHT22;3579;48.956;9.154;2024-02-23T02:11:51;19.60;61.40
7077;DHT22;3579;48.956;9.154;2024-02-23T02:14:18;19.60;61.30
7077;DHT22;3579;48.956;9.154;2024-02-23T02:16:44;19.60;61.30
7077;DHT22;3579;48.956;9.154;2024-02-23T02:19:11;19.60;61.40
7077;DHT22;3579;48.956;9.154;2024-02-23T02:21:37;19.60;61.30
7077;DHT22;3579;48.956;9.154;2024-02-23T02:24:04;19.60;61.20
7077;DHT22;3579;48.956;9.154;2024-02-23T02:26:31;19.60;61.20
7077;DHT22;3579;48.956;9.154;2024-02-23T02:28:57;19.60;61.20
7077;DHT22;3579;48.956;9.154;2024-02-23T02:31:23;19.60;61.30
7077;DHT22;3579;48.956;9.154;2024-02-23T02:33:49;19.60;61.30
7077;DHT22;3579;48.956;9.154;2024-02-23T02:36:15;19.60;61.30
7077;DHT22;3579;48.956;9.154;2024-02-23T02:38:41;19.60;61.30
7077;DHT22;3579;48.956;9.154;2024-02-23T02:41:08;19.60;61.40
7077;DHT22;3579;48.956;9.154;2024-02-23T02:43:34;19.60;61.40
7077;DHT22;3579;48.956;9.154;2024-02-23T02:46:00;19.60;61.40
7077;DHT22;3579;48.956;9.154;2024-02-23T02:48:26;19.60;61.40
7077;DHT22;3579;48.956;9.154;2024-02-23T02:50:52;19.60;61.40
7077;DHT22;3579;48.956;9.154;2024-02-23T02:53:18;19.50;61.40
7077;DHT22;3579;48.956;9.154;2024-02-23T02:55:45;19.50;61.50
7077;DHT22;3579;48.956;9.154;2024-02-23T02:58:11;19.60;61.50
7077;DHT22;3579;48.956;9.154;2024-02-23T03:00:38;19.50;61.50
7077;DHT22;3579;48.956;9.154;2024-02-23T03:03:05;19.50;61.50
7077;DHT22;3579;48.956;9.154;2024-02-23T03:05:31;19.50;62.10
7077;DHT22;3579;48.956;9.154;2024-02-23T03:07:57;19.50;61.50
7077;DHT22;3579;48.956;9.154;2024-02-23T03:10:23;19.50;61.50
7077;DHT22;3579;48.956;9.154;2024-02-23T03:12:49;19.50;61.50
7077;DHT22;3579;48.956;9.154;2024-02-23T03:15:15;19.50;61.50
7077;DHT22;3579;48.956;9.154;2024-02-23T03:17:42;19.50;61.50
7077;DHT22;3579;48.956;9.154;2024-02-23T03:20:08;19.50;61.50
7077;DHT22;3579;48.956;9.154;2024-02-23T03:22:37;19.50;61.40
7077;DHT22;3579;48.956;9.154;2024-02-23T03:25:04;19.50;61.40
7077;DHT22;3579;48.956;9.154;2024-02-23T03:27:35;19.50;61.40
7077;DHT22;3579;48.956;9.154;2024-02-23T03:30:08;19.50;61.30
7077;DHT22;3579;48.956;9.154;2024-02-23T03:32:34;19.50;61.40
7077;DHT22;3579;48.956;9.154;2024-02-23T03:35:06;19.50;61.40
7077;DHT22;3579;48.956;9.154;2024-02-23T03:37:32;19.50;61.40
7077;DHT22;3579;48.956;9.154;2024-02-23T03:39:58;19.50;61.30
7077;DHT22;3579;48.956;9.154;2024-02-23T03:42:26;19.50;61.30
7077;DHT22;3579;48.956;9.154;2024-02-23T03:44:52;19.50;61.30
7077;DHT22;3579;48.956;9.154;2024-02-23T03:47:19;17.20;59.10
7077;DHT22;3579;48.956;9.154;2024-02-23T03:49:45;19.50;61.30
7077;DHT22;3579;48.956;9.154;2024-02-23T03:52:11;19.50;61.30
7077;DHT22;3579;48.956;9.154;2024-02-23T03:54:37;19.50;61.30
7077;DHT22;3579;48.956;9.154;2024-02-23T03:57:03;19.50;61.20
7077;DHT22;3579;48.956;9.154;2024-02-23T03:59:29;19.50;61.40
7077;DHT22;3579;48.956;9.154;2024-02-23T04:01:55;19.50;61.40
7077;DHT22;3579;48.956;9.154;2024-02-23T04:04:22;19.50;61.30
7077;DHT22;3579;48.956;9.154;2024-02-23T04:06:48;19.50;61.40
7077;DHT22;3579;48.956;9.154;2024-02-23T04:09:14;19.50;61.40
7077;DHT22;3579;48.956;9.154;2024-02-23T04:11:40;19.50;61.40
7077;DHT22;3579;48.956;9.154;2024-02-23T04:14:06;19.50;61.50
7077;DHT22;3579;48.956;9.154;2024-02-23T04:16:32;19.50;61.60
7077;DHT22;3579;48.956;9.154;2024-02-23T04:18:58;19.50;61.50
7077;DHT22;3579;48.956;9.154;2024-02-23T04:21:25;19.50;61.60
7077;DHT22;3579;48.956;9.154;2024-02-23T04:23:52;19.50;61.60
7077;DHT22;3579;48.956;9.154;2024-02-23T04:26:18;19.40;61.40
7077;DHT22;3579;48.956;9.154;2024-02-23T04:28:44;19.40;61.50
7077;DHT22;3579;48.956;9.154;2024-02-23T04:31:10;19.40;62.10
7077;DHT22;3579;48.956;9.154;2024-02-23T04:33:37;19.40;61.50
7077;DHT22;3579;48.956;9.154;2024-02-23T04:36:04;19.40;61.40
7077;DHT22;3579;48.956;9.154;2024-02-23T04:38:30;19.40;62.10
7077;DHT22;3579;48.956;9.154;2024-02-23T04:40:58;19.40;61.40
7077;DHT22;3579;48.956;9.154;2024-02-23T04:43:24;19.40;61.30
7077;DHT22;3579;48.956;9.154;2024-02-23T04:45:51;19.40;61.30
7077;DHT22;3579;48.956;9.154;2024-02-23T04:48:17;19.40;61.40
7077;DHT22;3579;48.956;9.154;2024-02-23T04:50:43;19.40;61.30
7077;DHT22;3579;48.956;9.154;2024-02-23T04:53:09;19.40;61.20
7077;DHT22;3579;48.956;9.154;2024-02-23T04:55:35;19.40;61.20
7077;DHT22;3579;48.956;9.154;2024-02-23T04:58:01;19.40;61.20
7077;DHT22;3579;48.956;9.154;2024-02-23T05:00:27;19.50;61.30
7077;DHT22;3579;48.956;9.154;2024-02-23T05:03:02;19.50;61.20
7077;DHT22;3579;48.956;9.154;2024-02-23T05:05:30;19.40;61.10
7077;DHT22;3579;48.956;9.154;2024-02-23T05:07:56;19.50;61.20
7077;DHT22;3579;48.956;9.154;2024-02-23T05:10:22;19.50;61.20
7077;DHT22;3579;48.956;9.154;2024-02-23T05:12:49;19.50;61.50
7077;DHT22;3579;48.956;9.154;2024-02-23T05:15:15;19.50;61.20
7077;DHT22;3579;48.956;9.154;2024-02-23T05:17:41;19.40;61.10
7077;DHT22;3579;48.956;9.154;2024-02-23T05:20:07;19.50;61.10
7077;DHT22;3579;48.956;9.154;2024-02-23T05:22:36;19.40;61.00
7077;DHT22;3579;48.956;9.154;2024-02-23T05:25:03;19.40;61.10
7077;DHT22;3579;48.956;9.154;2024-02-23T05:27:31;19.40;61.10
7077;DHT22;3579;48.956;9.154;2024-02-23T05:29:57;19.40;61.80
7077;DHT22;3579;48.956;9.154;2024-02-23T05:32:23;19.40;61.10
7077;DHT22;3579;48.956;9.154;2024-02-23T05:34:49;19.40;61.10
7077;DHT22;3579;48.956;9.154;2024-02-23T05:37:18;19.40;61.20
7077;DHT22;3579;48.956;9.154;2024-02-23T05:39:45;19.40;61.20
7077;DHT22;3579;48.956;9.154;2024-02-23T05:42:12;19.30;61.10
7077;DHT22;3579;48.956;9.154;2024-02-23T05:44:39;19.30;61.10
7077;DHT22;3579;48.956;9.154;2024-02-23T05:47:05;19.30;61.10
7077;DHT22;3579;48.956;9.154;2024-02-23T05:49:32;19.30;61.10
7077;DHT22;3579;48.956;9.154;2024-02-23T05:51:57;19.30;61.20
7077;DHT22;3579;48.956;9.154;2024-02-23T05:54:24;19.30;61.10
7077;DHT22;3579;48.956;9.154;2024-02-23T05:56:50;19.30;61.10
7077;DHT22;3579;48.956;9.154;2024-02-23T05:59:16;19.30;61.10
7077;DHT22;3579;48.956;9.154;2024-02-23T06:01:42;19.30;61.10
7077;DHT22;3579;48.956;9.154;2024-02-23T06:04:08;19.30;61.10
7077;DHT22;3579;48.956;9.154;2024-02-23T06:06:34;19.20;61.10
7077;DHT22;3579;48.956;9.154;2024-02-23T06:09:00;19.30;61.20
7077;DHT22;3579;48.956;9.154;2024-02-23T06:11:26;19.30;61.20
7077;DHT22;3579;48.956;9.154;2024-02-23T06:13:52;19.30;61.20
7077;DHT22;3579;48.956;9.154;2024-02-23T06:16:18;19.30;61.20
7077;DHT22;3579;48.956;9.154;2024-02-23T06:18:44;19.30;61.20
7077;DHT22;3579;48.956;9.154;2024-02-23T06:21:13;19.30;61.20
7077;DHT22;3579;48.956;9.154;2024-02-23T06:23:40;19.30;61.20
7077;DHT22;3579;48.956;9.154;2024-02-23T06:26:07;19.20;61.10
7077;DHT22;3579;48.956;9.154;2024-02-23T06:28:33;19.20;61.10
7077;DHT22;3579;48.956;9.154;2024-02-23T06:30:59;19.20;61.20
7077;DHT22;3579;48.956;9.154;2024-02-23T06:33:26;19.20;61.20
7077;DHT22;3579;48.956;9.154;2024-02-23T06:35:52;19.20;61.20
7077;DHT22;3579;48.956;9.154;2024-02-23T06:38:18;19.20;61.20
7077;DHT22;3579;48.956;9.154;2024-02-23T06:40:44;19.20;61.20
7077;DHT22;3579;48.956;9.154;2024-02-23T06:43:13;19.20;61.20
7077;DHT22;3579;48.956;9.154;2024-02-23T06:45:54;19.20;61.20
7077;DHT22;3579;48.956;9.154;2024-02-23T06:48:29;19.20;61.20
7077;DHT22;3579;48.956;9.154;2024-02-23T06:50:55;19.20;61.20
7077;DHT22;3579;48.956;9.154;2024-02-23T06:53:21;19.20;61.10
7077;DHT22;3579;48.956;9.154;2024-02-23T06:55:47;19.20;61.10
7077;DHT22;3579;48.956;9.154;2024-02-23T06:58:13;19.20;61.00
7077;DHT22;3579;48.956;9.154;2024-02-23T07:00:40;19.20;61.00
7077;DHT22;3579;48.956;9.154;2024-02-23T07:03:06;19.20;60.90
7077;DHT22;3579;48.956;9.154;2024-02-23T07:05:33;19.30;60.90
7077;DHT22;3579;48.956;9.154;2024-02-23T07:08:01;19.30;60.80
7077;DHT22;3579;48.956;9.154;2024-02-23T07:10:28;19.30;60.70
7077;DHT22;3579;48.956;9.154;2024-02-23T07:12:54;19.30;60.60
7077;DHT22;3579;48.956;9.154;2024-02-23T07:15:21;19.40;60.60
7077;DHT22;3579;48.956;9.154;2024-02-23T07:17:47;19.40;60.60
7077;DHT22;3579;48.956;9.154;2024-02-23T07:20:14;19.40;60.40
7077;DHT22;3579;48.956;9.154;2024-02-23T07:22:44;19.50;60.50
7077;DHT22;3579;48.956;9.154;2024-02-23T07:25:10;19.50;60.40
7077;DHT22;3579;48.956;9.154;2024-02-23T07:27:37;19.50;60.40
7077;DHT22;3579;48.956;9.154;2024-02-23T07:30:03;19.50;60.30
7077;DHT22;3579;48.956;9.154;2024-02-23T07:32:30;19.50;60.30
7077;DHT22;3579;48.956;9.154;2024-02-23T07:34:56;19.50;60.30
7077;DHT22;3579;48.956;9.154;2024-02-23T07:37:22;19.50;60.20
7077;DHT22;3579;48.956;9.154;2024-02-23T07:39:49;19.50;60.20
7077;DHT22;3579;48.956;9.154;2024-02-23T07:42:16;19.50;60.30
7077;DHT22;3579;48.956;9.154;2024-02-23T07:44:44;19.50;60.40
7077;DHT22;3579;48.956;9.154;2024-02-23T07:47:11;19.40;60.30
7077;DHT22;3579;48.956;9.154;2024-02-23T07:49:38;19.40;60.40
7077;DHT22;3579;48.956;9.154;2024-02-23T07:52:07;19.40;60.40
7077;DHT22;3579;48.956;9.154;2024-02-23T07:54:33;19.40;60.40
7077;DHT22;3579;48.956;9.154;2024-02-23T07:56:59;19.40;60.40
7077;DHT22;3579;48.956;9.154;2024-02-23T07:59:25;19.40;60.40
7077;DHT22;3579;48.956;9.154;2024-02-23T08:01:52;19.40;60.40
7077;DHT22;3579;48.956;9.154;2024-02-23T08:04:18;19.40;60.40
7077;DHT22;3579;48.956;9.154;2024-02-23T08:06:45;19.40;60.40
7077;DHT22;3579;48.956;9.154;2024-02-23T08:09:11;19.40;60.40
7077;DHT22;3579;48.956;9.154;2024-02-23T08:11:37;19.40;60.40
7077;DHT22;3579;48.956;9.154;2024-02-23T08:14:03;19.40;60.40
7077;DHT22;3579;48.956;9.154;2024-02-23T08:16:29;19.40;60.40
7077;DHT22;3579;48.956;9.154;2024-02-23T08:18:55;19.40;60.40
7077;DHT22;3579;48.956;9.154;2024-02-23T08:21:21;19.40;60.40
7077;DHT22;3579;48.956;9.154;2024-02-23T08:23:47;19.40;60.40
7077;DHT22;3579;48.956;9.154;2024-02-23T08:26:13;19.50;60.40
7077;DHT22;3579;48.956;9.154;2024-02-23T08:28:41;19.40;60.30
7077;DHT22;3579;48.956;9.154;2024-02-23T08:31:08;19.50;60.30
7077;DHT22;3579;48.956;9.154;2024-02-23T08:33:35;19.60;60.20
7077;DHT22;3579;48.956;9.154;2024-02-23T08:36:02;19.60;60.00
7077;DHT22;3579;48.956;9.154;2024-02-23T08:38:34;19.70;60.00
7077;DHT22;3579;48.956;9.154;2024-02-23T08:41:02;19.70;60.00
7077;DHT22;3579;48.956;9.154;2024-02-23T08:43:29;19.70;59.90
7077;DHT22;3579;48.956;9.154;2024-02-23T08:45:56;19.70;59.90
7077;DHT22;3579;48.956;9.154;2024-02-23T08:48:22;19.70;59.80
7077;DHT22;3579;48.956;9.154;2024-02-23T08:50:48;19.70;59.80
7077;DHT22;3579;48.956;9.154;2024-02-23T08:53:14;19.70;59.80
7077;DHT22;3579;48.956;9.154;2024-02-23T08:55:41;19.70;59.80
7077;DHT22;3579;48.956;9.154;2024-02-23T08:58:08;19.80;59.80
7077;DHT22;3579;48.956;9.154;2024-02-23T09:00:35;19.80;59.80
7077;DHT22;3579;48.956;9.154;2024-02-23T09:03:03;19.80;59.80
7077;DHT22;3579;48.956;9.154;2024-02-23T09:05:30;19.80;59.80
7077;DHT22;3579;48.956;9.154;2024-02-23T09:07:56;19.80;59.80
7077;DHT22;3579;48.956;9.154;2024-02-23T09:10:22;19.80;59.80
7077;DHT22;3579;48.956;9.154;2024-02-23T09:12:48;19.80;59.80
7077;DHT22;3579;48.956;9.154;2024-02-23T09:15:14;19.80;59.80
7077;DHT22;3579;48.956;9.154;2024-02-23T09:17:41;19.80;59.80
7077;DHT22;3579;48.956;9.154;2024-02-23T09:20:08;19.80;59.80
7077;DHT22;3579;48.956;9.154;2024-02-23T09:22:34;19.80;59.80
7077;DHT22;3579;48.956;9.154;2024-02-23T09:25:01;19.70;59.80
7077;DHT22;3579;48.956;9.154;2024-02-23T09:27:27;19.80;59.80
7077;DHT22;3579;48.956;9.154;2024-02-23T09:29:53;19.70;59.80
7077;DHT22;3579;48.956;9.154;2024-02-23T09:32:19;19.70;59.80
7077;DHT22;3579;48.956;9.154;2024-02-23T09:34:45;19.70;59.80
7077;DHT22;3579;48.956;9.154;2024-02-23T09:37:11;19.80;60.40
7077;DHT22;3579;48.956;9.154;2024-02-23T09:39:37;19.80;59.70
7077;DHT22;3579;48.956;9.154;2024-02-23T09:42:06;19.90;59.70
7077;DHT22;3579;48.956;9.154;2024-02-23T09:44:35;19.90;59.70
7077;DHT22;3579;48.956;9.154;2024-02-23T09:47:02;19.90;59.60
7077;DHT22;3579;48.956;9.154;2024-02-23T09:49:37;19.90;59.60
7077;DHT22;3579;48.956;9.154;2024-02-23T09:52:07;19.90;59.70
7077;DHT22;3579;48.956;9.154;2024-02-23T09:54:35;19.90;59.80
7077;DHT22;3579;48.956;9.154;2024-02-23T09:57:07;19.90;59.80
7077;DHT22;3579;48.956;9.154;2024-02-23T09:59:35;20.00;59.80
7077;DHT22;3579;48.956;9.154;2024-02-23T10:02:03;20.00;59.80
7077;DHT22;3579;48.956;9.154;2024-02-23T10:04:32;20.00;59.70
7077;DHT22;3579;48.956;9.154;2024-02-23T10:06:58;20.00;59.70
7077;DHT22;3579;48.956;9.154;2024-02-23T10:09:24;20.00;59.60
7077;DHT22;3579;48.956;9.154;2024-02-23T10:11:54;20.10;59.70
7077;DHT22;3579;48.956;9.154;2024-02-23T10:14:21;20.00;59.70
7077;DHT22;3579;48.956;9.154;2024-02-23T10:16:47;20.00;59.70
7077;DHT22;3579;48.956;9.154;2024-02-23T10:19:19;20.00;59.70
7077;DHT22;3579;48.956;9.154;2024-02-23T10:21:45;20.00;59.70
7077;DHT22;3579;48.956;9.154;2024-02-23T10:24:12;20.00;59.70
7077;DHT22;3579;48.956;9.154;2024-02-23T10:26:38;20.00;59.70
7077;DHT22;3579;48.956;9.154;2024-02-23T10:29:04;20.00;59.60
7077;DHT22;3579;48.956;9.154;2024-02-23T10:31:35;20.00;59.60
7077;DHT22;3579;48.956;9.154;2024-02-23T10:34:12;20.00;59.60
7077;DHT22;3579;48.956;9.154;2024-02-23T10:36:41;20.00;59.60
7077;DHT22;3579;48.956;9.154;2024-02-23T10:39:08;20.00;59.60
7077;DHT22;3579;48.956;9.154;2024-02-23T10:41:36;20.00;59.60
7077;DHT22;3579;48.956;9.154;2024-02-23T10:44:05;20.10;59.60
7077;DHT22;3579;48.956;9.154;2024-02-23T10:46:33;20.10;59.60
7077;DHT22;3579;48.956;9.154;2024-02-23T10:49:01;20.10;59.60
7077;DHT22;3579;48.956;9.154;2024-02-23T10:51:28;20.00;59.60
7077;DHT22;3579;48.956;9.154;2024-02-23T10:53:55;20.10;59.60
7077;DHT22;3579;48.956;9.154;2024-02-23T10:56:21;20.10;59.60
7077;DHT22;3579;48.956;9.154;2024-02-23T10:58:52;20.10;59.60
7077;DHT22;3579;48.956;9.154;2024-02-23T11:01:19;20.20;59.60
7077;DHT22;3579;48.956;9.154;2024-02-23T11:03:46;20.20;59.60
7077;DHT22;3579;48.956;9.154;2024-02-23T11:06:16;20.10;59.60
7077;DHT22;3579;48.956;9.154;2024-02-23T11:08:50;20.20;59.60
7077;DHT22;3579;48.956;9.154;2024-02-23T11:11:17;20.20;59.50
7077;DHT22;3579;48.956;9.154;2024-02-23T11:13:44;20.20;59.50
7077;DHT22;3579;48.956;9.154;2024-02-23T11:16:21;20.20;59.60
7077;DHT22;3579;48.956;9.154;2024-02-23T11:18:49;20.20;59.50
7077;DHT22;3579;48.956;9.154;2024-02-23T11:21:15;20.20;59.60
7077;DHT22;3579;48.956;9.154;2024-02-23T11:23:47;20.20;59.60
7077;DHT22;3579;48.956;9.154;2024-02-23T11:26:17;20.20;60.00
7077;DHT22;3579;48.956;9.154;2024-02-23T11:28:50;20.20;59.50
7077;DHT22;3579;48.956;9.154;2024-02-23T11:31:21;20.20;59.50
7077;DHT22;3579;48.956;9.154;2024-02-23T11:33:48;20.20;59.50
7077;DHT22;3579;48.956;9.154;2024-02-23T11:36:27;20.20;59.50
7077;DHT22;3579;48.956;9.154;2024-02-23T11:38:54;20.20;59.50
7077;DHT22;3579;48.956;9.154;2024-02-23T11:41:23;20.20;59.40
7077;DHT22;3579;48.956;9.154;2024-02-23T11:43:54;20.20;59.90
7077;DHT22;3579;48.956;9.154;2024-02-23T11:46:21;20.20;59.30
7077;DHT22;3579;48.956;9.154;2024-02-23T11:48:48;20.20;59.80
7077;DHT22;3579;48.956;9.154;2024-02-23T11:51:22;20.20;59.30
7077;DHT22;3579;48.956;9.154;2024-02-23T11:53:50;20.30;59.40
7077;DHT22;3579;48.956;9.154;2024-02-23T11:56:16;20.20;59.30
7077;DHT22;3579;48.956;9.154;2024-02-23T11:58:44;20.20;59.40
7077;DHT22;3579;48.956;9.154;2024-02-23T12:01:10;20.20;59.40
7077;DHT22;3579;48.956;9.154;2024-02-23T12:03:37;20.20;59.40
7077;DHT22;3579;48.956;9.154;2024-02-23T12:06:07;20.30;59.40
7077;DHT22;3579;48.956;9.154;2024-02-23T12:08:33;20.20;59.20
7077;DHT22;3579;48.956;9.154;2024-02-23T12:11:06;20.20;59.20
7077;DHT22;3579;48.956;9.154;2024-02-23T12:13:38;20.30;59.30
7077;DHT22;3579;48.956;9.154;2024-02-23T12:16:06;20.30;59.30
7077;DHT22;3579;48.956;9.154;2024-02-23T12:18:34;20.30;59.30
7077;DHT22;3579;48.956;9.154;2024-02-23T12:21:01;20.30;59.30
7077;DHT22;3579;48.956;9.154;2024-02-23T12:23:48;20.30;59.30
7077;DHT22;3579;48.956;9.154;2024-02-23T12:26:18;20.30;59.30
7077;DHT22;3579;48.956;9.154;2024-02-23T12:28:45;20.30;59.30
7077;DHT22;3579;48.956;9.154;2024-02-23T12:31:14;20.30;59.30
7077;DHT22;3579;48.956;9.154;2024-02-23T12:33:40;20.40;59.30
7077;DHT22;3579;48.956;9.154;2024-02-23T12:36:07;20.30;59.30
7077;DHT22;3579;48.956;9.154;2024-02-23T12:38:35;20.30;59.20
7077;DHT22;3579;48.956;9.154;2024-02-23T12:41:02;20.30;59.20
7077;DHT22;3579;48.956;9.154;2024-02-23T12:43:28;20.30;59.20
7077;DHT22;3579;48.956;9.154;2024-02-23T12:45:56;20.30;59.20
7077;DHT22;3579;48.956;9.154;2024-02-23T12:48:23;20.30;59.20
7077;DHT22;3579;48.956;9.154;2024-02-23T12:50:49;20.30;59.10
7077;DHT22;3579;48.956;9.154;2024-02-23T12:53:32;20.30;59.10
7077;DHT22;3579;48.956;9.154;2024-02-23T12:56:06;20.30;59.10
7077;DHT22;3579;48.956;9.154;2024-02-23T12:58:37;20.30;59.10
7077;DHT22;3579;48.956;9.154;2024-02-23T13:01:04;20.30;59.10
7077;DHT22;3579;48.956;9.154;2024-02-23T13:03:30;20.30;59.10
7077;DHT22;3579;48.956;9.154;2024-02-23T13:05:57;20.30;59.10
7077;DHT22;3579;48.956;9.154;2024-02-23T13:10:59;19.10;57.70
7077;DHT22;3579;48.956;9.154;2024-02-23T13:13:25;20.30;59.20
7077;DHT22;3579;48.956;9.154;2024-02-23T13:15:52;20.30;59.20
7077;DHT22;3579;48.956;9.154;2024-02-23T13:18:18;20.50;59.00
7077;DHT22;3579;48.956;9.154;2024-02-23T13:20:48;20.30;59.20
7077;DHT22;3579;48.956;9.154;2024-02-23T13:23:14;20.30;59.20
7077;DHT22;3579;48.956;9.154;2024-02-23T13:25:42;20.30;59.20
7077;DHT22;3579;48.956;9.154;2024-02-23T13:28:08;20.30;59.20
7077;DHT22;3579;48.956;9.154;2024-02-23T13:30:35;20.30;59.10
7077;DHT22;3579;48.956;9.154;2024-02-23T13:33:02;20.30;59.10
7077;DHT22;3579;48.956;9.154;2024-02-23T13:35:28;20.30;59.10
7077;DHT22;3579;48.956;9.154;2024-02-23T13:37:54;20.30;59.00
7077;DHT22;3579;48.956;9.154;2024-02-23T13:40:20;20.30;59.00
7077;DHT22;3579;48.956;9.154;2024-02-23T13:42:47;20.40;59.10
7077;DHT22;3579;48.956;9.154;2024-02-23T13:45:16;20.30;59.00
7077;DHT22;3579;48.956;9.154;2024-02-23T13:47:43;20.40;59.10
7077;DHT22;3579;48.956;9.154;2024-02-23T13:50:10;20.30;59.00
7077;DHT22;3579;48.956;9.154;2024-02-23T13:52:37;20.40;59.10
7077;DHT22;3579;48.956;9.154;2024-02-23T13:55:03;20.30;59.00
7077;DHT22;3579;48.956;9.154;2024-02-23T13:57:29;20.40;59.10
7077;DHT22;3579;48.956;9.154;2024-02-23T13:59:56;20.00;58.80
7077;DHT22;3579;48.956;9.154;2024-02-23T14:02:26;20.40;59.70
7077;DHT22;3579;48.956;9.154;2024-02-23T14:04:52;20.30;59.00
7077;DHT22;3579;48.956;9.154;2024-02-23T14:07:20;20.30;59.00
7077;DHT22;3579;48.956;9.154;2024-02-23T14:09:46;20.30;59.10
7077;DHT22;3579;48.956;9.154;2024-02-23T14:12:12;20.30;59.10
7077;DHT22;3579;48.956;9.154;2024-02-23T14:14:38;20.30;59.70
7077;DHT22;3579;48.956;9.154;2024-02-23T14:17:05;20.20;59.10
7077;DHT22;3579;48.956;9.154;2024-02-23T14:19:32;20.30;59.10
7077;DHT22;3579;48.956;9.154;2024-02-23T14:21:58;20.30;59.20
7077;DHT22;3579;48.956;9.154;2024-02-23T14:24:24;20.20;59.70
7077;DHT22;3579;48.956;9.154;2024-02-23T14:26:50;20.30;59.30
7077;DHT22;3579;48.956;9.154;2024-02-23T14:29:16;21.90;60.80
7077;DHT22;3579;48.956;9.154;2024-02-23T14:31:43;20.30;59.30
7077;DHT22;3579;48.956;9.154;2024-02-23T14:34:09;20.20;59.20
7077;DHT22;3579;48.956;9.154;2024-02-23T14:36:36;20.20;59.20
7077;DHT22;3579;48.956;9.154;2024-02-23T14:39:03;20.20;59.10
7077;DHT22;3579;48.956;9.154;2024-02-23T14:41:30;20.30;59.30
7077;DHT22;3579;48.956;9.154;2024-02-23T14:43:57;20.20;59.20
7077;DHT22;3579;48.956;9.154;2024-02-23T14:46:23;20.20;59.20
7077;DHT22;3579;48.956;9.154;2024-02-23T14:48:49;20.30;59.30
7077;DHT22;3579;48.956;9.154;2024-02-23T14:51:15;20.20;59.20
7077;DHT22;3579;48.956;9.154;2024-02-23T14:53:41;20.20;59.20
7077;DHT22;3579;48.956;9.154;2024-02-23T14:56:08;20.30;59.30
7077;DHT22;3579;48.956;9.154;2024-02-23T14:58:34;20.20;59.20
7077;DHT22;3579;48.956;9.154;2024-02-23T15:01:00;20.20;59.20
7077;DHT22;3579;48.956;9.154;2024-02-23T15:03:26;20.20;59.20
7077;DHT22;3579;48.956;9.154;2024-02-23T15:05:52;20.20;59.20
7077;DHT22;3579;48.956;9.154;2024-02-23T15:08:18;20.20;59.20
7077;DHT22;3579;48.956;9.154;2024-02-23T15:10:44;20.20;59.20
7077;DHT22;3579;48.956;9.154;2024-02-23T15:13:10;20.20;59.20
7077;DHT22;3579;48.956;9.154;2024-02-23T15:15:36;20.20;59.30
7077;DHT22;3579;48.956;9.154;2024-02-23T15:18:06;20.20;59.30
7077;DHT22;3579;48.956;9.154;2024-02-23T15:20:32;20.20;59.40
7077;DHT22;3579;48.956;9.154;2024-02-23T15:22:58;20.20;59.30
7077;DHT22;3579;48.956;9.154;2024-02-23T15:25:24;20.20;59.40
7077;DHT22;3579;48.956;9.154;2024-02-23T15:27:50;20.20;59.40
7077;DHT22;3579;48.956;9.154;2024-02-23T15:30:18;20.10;59.40
7077;DHT22;3579;48.956;9.154;2024-02-23T15:32:44;20.10;59.40
7077;DHT22;3579;48.956;9.154;2024-02-23T15:35:10;20.10;59.40
7077;DHT22;3579;48.956;9.154;2024-02-23T15:37:36;20.10;59.50
7077;DHT22;3579;48.956;9.154;2024-02-23T15:40:02;20.10;59.50
7077;DHT22;3579;48.956;9.154;2024-02-23T15:42:30;20.00;59.40
7077;DHT22;3579;48.956;9.154;2024-02-23T15:44:56;20.10;59.50
7077;DHT22;3579;48.956;9.154;2024-02-23T15:47:22;20.00;59.40
7077;DHT22;3579;48.956;9.154;2024-02-23T15:49:48;20.00;59.50
7077;DHT22;3579;48.956;9.154;2024-02-23T15:52:14;20.00;59.50
7077;DHT22;3579;48.956;9.154;2024-02-23T15:54:40;20.00;59.50
7077;DHT22;3579;48.956;9.154;2024-02-23T15:57:06;20.00;59.50
7077;DHT22;3579;48.956;9.154;2024-02-23T15:59:32;20.00;59.50
7077;DHT22;3579;48.956;9.154;2024-02-23T16:01:58;20.00;59.60